Time;durP1;ratioP1;P1;durP2;ratioP2;P2;SDS_P1;SDS_P2;PMS_P1;PMS_P2;Temp;Humidity;BMP_temperature;BMP_pressure;BME280_temperature;BME280_humidity;BME280_pressure;Samples;Min_cycle;Max_cycle;Signal;HPM_P1;HPM_P2
2020/12/04 00:01:36;;;;;;;37.50;19.80;;;0.10;1.00;;;;;;5067443;28;20234;-57
2020/12/04 00:04:02;;;;;;;40.97;22.85;;;0.00;1.00;;;;;;5069743;28;20464;-54
2020/12/04 00:06:27;;;;;;;39.97;22.10;;;0.10;1.00;;;;;;5076519;28;20210;-54
2020/12/04 00:08:53;;;;;;;38.60;21.20;;;0.00;1.00;;;;;;5064401;28;20189;-53
2020/12/04 00:11:20;;;;;;;31.67;20.10;;;0.00;1.00;;;;;;5054574;28;20536;-56
2020/12/04 00:13:45;;;;;;;38.00;21.15;;;0.00;1.00;;;;;;5069107;28;20909;-57
2020/12/04 00:16:11;;;;;;;38.90;23.63;;;0.10;1.00;;;;;;5067495;28;20224;-56
2020/12/04 00:18:36;;;;;;;38.30;22.60;;;0.10;1.00;;;;;;5066747;28;20189;-56
2020/12/04 00:21:02;;;;;;;39.30;22.47;;;0.10;1.00;;;;;;5067334;28;20177;-57
2020/12/04 00:23:28;;;;;;;38.23;22.90;;;0.10;1.00;;;;;;5064699;28;20296;-57
2020/12/04 00:25:53;;;;;;;41.43;21.97;;;0.10;1.00;;;;;;5068068;28;20184;-55
2020/12/04 00:28:19;;;;;;;38.83;21.77;;;0.10;1.00;;;;;;5055410;28;20212;-57
2020/12/04 00:30:44;;;;;;;37.63;21.97;;;0.10;1.00;;;;;;5061302;28;20226;-58
2020/12/04 00:33:10;;;;;;;37.50;21.13;;;0.10;1.00;;;;;;5066324;28;20196;-56
2020/12/04 00:35:36;;;;;;;34.73;21.87;;;0.10;1.00;;;;;;5050734;28;20182;-55
2020/12/04 00:38:02;;;;;;;39.53;22.60;;;0.10;1.00;;;;;;5062165;28;20188;-55
2020/12/04 00:40:27;;;;;;;44.35;22.10;;;0.10;1.00;;;;;;5065208;28;20217;-55
2020/12/04 00:42:53;;;;;;;37.90;22.80;;;0.10;1.00;;;;;;5068761;28;20209;-56
2020/12/04 00:45:18;;;;;;;35.00;20.60;;;0.10;1.00;;;;;;5066916;28;20255;-55
2020/12/04 00:47:44;;;;;;;39.77;21.97;;;0.20;1.00;;;;;;5063792;28;20654;-55
2020/12/04 00:50:10;;;;;;;39.50;22.10;;;0.20;1.00;;;;;;5066057;28;20177;-55
2020/12/04 00:52:35;;;;;;;31.43;19.23;;;0.20;1.00;;;;;;5068653;28;20185;-54
2020/12/04 00:55:01;;;;;;;35.70;20.90;;;0.20;1.00;;;;;;5066742;28;20209;-55
2020/12/04 00:57:27;;;;;;;35.93;22.30;;;0.30;1.00;;;;;;5067329;28;20185;-55
2020/12/04 00:59:52;;;;;;;40.70;23.53;;;0.30;1.00;;;;;;5067727;28;20659;-57
2020/12/04 01:02:18;;;;;;;34.37;21.00;;;0.30;1.00;;;;;;5051378;28;20198;-57
2020/12/04 01:04:43;;;;;;;37.93;22.23;;;0.30;1.00;;;;;;5058935;28;20242;-58
2020/12/04 01:07:09;;;;;;;35.17;20.53;;;0.30;1.00;;;;;;5068082;28;20238;-56
2020/12/04 01:09:35;;;;;;;32.90;19.80;;;0.30;1.00;;;;;;5067726;28;20200;-55
2020/12/04 01:12:01;;;;;;;31.60;18.47;;;0.30;1.00;;;;;;5068279;28;20193;-57
2020/12/04 01:14:27;;;;;;;29.87;18.40;;;0.30;1.00;;;;;;5061042;28;20447;-56
2020/12/04 01:16:53;;;;;;;30.90;18.80;;;0.40;1.00;;;;;;5048442;28;20229;-57
2020/12/04 01:19:19;;;;;;;32.33;17.77;;;0.40;1.00;;;;;;5054785;28;20193;-56
2020/12/04 01:21:47;;;;;;;31.70;17.90;;;0.40;1.00;;;;;;5065082;28;20185;-58
2020/12/04 01:24:13;;;;;;;34.05;20.20;;;0.50;1.00;;;;;;5070533;28;20208;-56
2020/12/04 01:26:40;;;;;;;33.03;18.93;;;0.60;1.00;;;;;;5078770;28;20234;-55
2020/12/04 01:29:06;;;;;;;32.85;19.50;;;0.70;1.00;;;;;;5069885;28;20934;-55
2020/12/04 01:31:31;;;;;;;31.02;18.83;;;0.70;1.00;;;;;;5055174;28;20181;-56
2020/12/04 01:34:00;;;;;;;29.83;18.73;;;0.70;1.00;;;;;;5070007;28;20643;-58
2020/12/04 01:36:26;;;;;;;31.60;18.98;;;0.80;1.00;;;;;;5072046;28;20527;-56
2020/12/04 01:38:52;;;;;;;29.13;17.15;;;0.80;1.00;;;;;;5071439;28;21019;-56
2020/12/04 01:41:17;;;;;;;30.63;17.93;;;0.90;1.00;;;;;;5070477;28;20344;-56
2020/12/04 01:43:43;;;;;;;33.40;18.70;;;0.90;1.00;;;;;;5061590;28;20278;-55
2020/12/04 01:46:09;;;;;;;30.53;17.27;;;0.90;1.00;;;;;;5063558;28;20177;-54
2020/12/04 01:48:34;;;;;;;31.90;18.37;;;1.00;1.00;;;;;;5057416;28;20174;-52
2020/12/04 01:51:01;;;;;;;31.50;18.87;;;1.00;1.00;;;;;;5070900;28;20259;-57
2020/12/04 01:53:27;;;;;;;31.08;18.65;;;1.00;1.00;;;;;;5071825;28;20185;-52
2020/12/04 01:55:54;;;;;;;29.25;19.05;;;1.10;1.00;;;;;;5069777;28;20189;-56
2020/12/04 01:58:19;;;;;;;33.80;20.83;;;1.10;1.00;;;;;;5058760;28;20193;-57
2020/12/04 02:00:45;;;;;;;31.53;19.50;;;1.20;1.00;;;;;;5067107;28;20185;-55
2020/12/04 02:03:13;;;;;;;32.27;19.10;;;1.20;1.00;;;;;;5058257;28;20979;-54
2020/12/04 02:06:02;;;;;;;33.15;20.33;;;1.20;1.00;;;;;;5070911;28;20440;-52
2020/12/04 02:08:32;;;;;;;31.88;19.10;;;1.20;1.00;;;;;;5069702;28;20725;-55
2020/12/04 02:11:15;;;;;;;33.90;21.55;;;1.20;1.00;;;;;;5067651;28;20171;-56
2020/12/04 02:13:45;;;;;;;32.20;18.73;;;1.30;1.00;;;;;;5057044;28;20231;-56
2020/12/04 02:16:19;;;;;;;33.08;19.70;;;1.30;1.00;;;;;;5067041;28;20185;-56
2020/12/04 02:18:46;;;;;;;35.25;20.90;;;1.30;1.00;;;;;;5068647;28;20182;-57
2020/12/04 02:21:12;;;;;;;32.58;20.30;;;1.30;1.00;;;;;;5063015;28;20185;-54
2020/12/04 02:23:43;;;;;;;36.03;19.77;;;1.30;1.00;;;;;;5062061;28;20209;-54
2020/12/04 02:26:10;;;;;;;32.08;19.20;;;1.30;1.00;;;;;;5070182;28;20540;-56
2020/12/04 02:28:37;;;;;;;33.17;19.17;;;1.40;1.00;;;;;;5061319;28;20194;-55
2020/12/04 02:31:03;;;;;;;28.80;18.58;;;1.30;1.00;;;;;;5069692;28;20523;-55
2020/12/04 02:33:29;;;;;;;31.67;19.13;;;1.40;1.00;;;;;;5061872;28;20174;-53
2020/12/04 02:35:55;;;;;;;28.13;17.77;;;1.40;1.00;;;;;;5070978;28;20270;-54
2020/12/04 02:38:22;;;;;;;33.28;19.08;;;1.40;1.00;;;;;;5069134;28;20175;-56
2020/12/04 02:40:48;;;;;;;30.67;19.00;;;1.40;1.00;;;;;;5067156;28;20373;-52
2020/12/04 02:43:13;;;;;;;32.30;19.90;;;1.40;1.60;;;;;;5069252;28;20269;-55
2020/12/04 02:45:39;;;;;;;33.53;19.63;;;1.40;1.50;;;;;;5071027;28;20182;-53
2020/12/04 02:48:04;;;;;;;28.73;19.10;;;1.40;4.40;;;;;;5067433;28;20280;-53
2020/12/04 02:50:30;;;;;;;34.63;18.60;;;1.40;4.60;;;;;;5057613;28;20546;-55
2020/12/04 02:52:56;;;;;;;35.20;21.30;;;1.40;6.50;;;;;;5069716;28;20205;-54
2020/12/04 02:55:21;;;;;;;31.07;18.50;;;1.50;4.80;;;;;;5069764;28;20327;-57
2020/12/04 02:57:47;;;;;;;31.33;19.40;;;1.50;4.00;;;;;;5070249;28;20182;-55
2020/12/04 03:00:12;;;;;;;28.70;17.83;;;1.50;7.90;;;;;;5069387;28;20218;-53
2020/12/04 03:02:38;;;;;;;31.67;19.23;;;1.50;7.20;;;;;;5055127;28;20209;-55
2020/12/04 03:05:04;;;;;;;29.40;16.77;;;1.60;6.40;;;;;;5061167;28;20201;-56
2020/12/04 03:07:30;;;;;;;31.85;19.10;;;1.60;6.50;;;;;;5051832;28;20183;-54
2020/12/04 03:09:55;;;;;;;26.13;17.97;;;1.60;3.80;;;;;;5068935;28;20182;-55
2020/12/04 03:12:21;;;;;;;29.87;18.17;;;1.70;4.20;;;;;;5057071;28;20205;-56
2020/12/04 03:14:46;;;;;;;29.37;19.03;;;1.70;3.40;;;;;;5069010;28;20216;-54
2020/12/04 03:17:12;;;;;;;30.03;18.00;;;1.70;1.00;;;;;;5068873;28;20236;-55
2020/12/04 03:19:38;;;;;;;29.73;17.10;;;1.80;1.60;;;;;;5068849;28;20608;-56
2020/12/04 03:22:04;;;;;;;27.70;18.20;;;1.80;1.20;;;;;;5068215;28;20205;-55
2020/12/04 03:24:33;;;;;;;27.87;19.40;;;1.80;1.20;;;;;;5068045;28;20210;-56
2020/12/04 03:26:59;;;;;;;25.75;18.48;;;1.80;2.10;;;;;;5064033;28;20424;-56
2020/12/04 03:29:25;;;;;;;31.88;17.90;;;1.80;1.00;;;;;;5068510;28;20615;-55
2020/12/04 03:31:51;;;;;;;26.57;16.57;;;1.90;1.00;;;;;;5070071;28;20177;-56
2020/12/04 03:34:16;;;;;;;26.80;16.30;;;1.90;1.00;;;;;;5068159;28;20775;-55
2020/12/04 03:36:42;;;;;;;27.80;17.10;;;1.90;1.00;;;;;;5057082;28;20198;-54
2020/12/04 03:39:08;;;;;;;30.47;17.50;;;1.90;1.00;;;;;;5067098;28;20219;-56
2020/12/04 03:41:33;;;;;;;28.33;19.80;;;1.90;1.00;;;;;;5051559;28;20306;-57
2020/12/04 03:43:59;;;;;;;28.83;17.83;;;2.00;1.00;;;;;;5052788;28;20223;-55
2020/12/04 03:46:24;;;;;;;29.97;17.23;;;1.90;1.00;;;;;;5052973;28;20183;-56
2020/12/04 03:48:50;;;;;;;27.23;17.17;;;2.00;1.00;;;;;;5050028;28;20266;-55
2020/12/04 03:51:16;;;;;;;28.33;17.00;;;2.00;1.00;;;;;;5060791;28;20178;-54
2020/12/04 03:53:41;;;;;;;27.10;16.63;;;2.00;1.00;;;;;;5067774;28;20186;-53
2020/12/04 03:56:07;;;;;;;27.13;17.07;;;2.00;1.00;;;;;;5069746;28;20194;-54
2020/12/04 03:58:33;;;;;;;30.40;17.00;;;2.00;1.00;;;;;;5067929;28;20185;-56
2020/12/04 04:00:59;;;;;;;27.07;17.87;;;2.00;1.00;;;;;;5052885;28;20234;-55
2020/12/04 04:03:24;;;;;;;27.13;15.85;;;2.00;1.00;;;;;;5053315;28;20185;-56
2020/12/04 04:05:50;;;;;;;26.70;15.97;;;2.00;1.00;;;;;;5049472;28;20290;-57
2020/12/04 04:08:16;;;;;;;27.83;17.50;;;2.00;1.00;;;;;;5056337;28;20186;-57
2020/12/04 04:10:42;;;;;;;26.55;16.30;;;2.00;1.00;;;;;;5069403;28;20267;-57
2020/12/04 04:13:07;;;;;;;26.50;18.70;;;2.00;1.00;;;;;;5071538;28;20599;-53
2020/12/04 04:15:34;;;;;;;25.00;17.27;;;2.00;1.00;;;;;;5079303;28;20178;-54
2020/12/04 04:17:59;;;;;;;26.20;16.17;;;2.00;1.00;;;;;;5073277;28;20228;-58
2020/12/04 04:20:28;;;;;;;23.77;15.93;;;2.00;1.00;;;;;;5053146;28;20193;-54
2020/12/04 04:22:54;;;;;;;24.00;16.02;;;2.00;2.10;;;;;;5052844;28;20233;-57
2020/12/04 04:25:20;;;;;;;26.33;16.13;;;2.00;2.20;;;;;;5068253;28;20218;-55
2020/12/04 04:27:45;;;;;;;29.50;16.70;;;2.00;2.50;;;;;;5063633;28;20448;-55
2020/12/04 04:30:11;;;;;;;25.27;14.80;;;2.10;1.70;;;;;;5068956;28;20927;-56
2020/12/04 04:32:37;;;;;;;24.70;16.53;;;2.10;1.90;;;;;;5063650;28;20186;-56
2020/12/04 04:35:04;;;;;;;23.77;16.20;;;2.10;1.00;;;;;;5057225;28;20464;-56
2020/12/04 04:37:29;;;;;;;21.38;14.25;;;2.10;1.00;;;;;;5065235;28;20505;-54
2020/12/04 04:39:55;;;;;;;21.50;15.73;;;2.10;1.00;;;;;;5067985;28;20199;-56
2020/12/04 04:42:21;;;;;;;27.03;17.47;;;2.10;1.00;;;;;;5068790;28;20183;-57
2020/12/04 04:44:46;;;;;;;25.00;16.20;;;2.20;1.00;;;;;;5062927;28;20230;-57
2020/12/04 04:47:17;;;;;;;22.30;15.43;;;2.20;1.00;;;;;;5068580;28;20183;-53
2020/12/04 04:49:50;;;;;;;23.58;15.55;;;2.20;1.00;;;;;;5064230;28;20179;-58
2020/12/04 04:52:16;;;;;;;22.52;15.05;;;2.20;1.00;;;;;;5068626;28;21028;-57
2020/12/04 04:54:45;;;;;;;22.20;14.75;;;2.20;1.00;;;;;;5064295;28;20752;-54
2020/12/04 04:57:15;;;;;;;23.58;15.07;;;2.20;1.00;;;;;;5068006;28;21065;-57
2020/12/04 04:59:41;;;;;;;22.60;14.60;;;2.20;4.50;;;;;;5064744;28;20183;-58
2020/12/04 05:02:11;;;;;;;22.50;15.38;;;2.30;3.70;;;;;;5060300;28;20218;-52
2020/12/04 05:05:06;;;;;;;24.50;14.65;;;2.30;5.50;;;;;;5064495;28;20575;-53
2020/12/04 05:07:33;;;;;;;23.20;16.02;;;2.30;8.90;;;;;;5053183;28;20197;-56
2020/12/04 05:10:16;;;;;;;20.80;13.38;;;2.30;8.80;;;;;;5066313;28;20181;-51
2020/12/04 05:12:43;;;;;;;26.20;15.85;;;2.40;9.10;;;;;;5067223;28;20290;-55
2020/12/04 05:15:29;;;;;;;22.73;15.02;;;2.40;7.20;;;;;;5051425;28;20629;-57
2020/12/04 05:18:12;;;;;;;20.92;13.90;;;2.40;5.30;;;;;;5054079;28;20186;-58
2020/12/04 05:20:49;;;;;;;20.20;13.05;;;2.50;3.60;;;;;;5061769;28;21024;-58
2020/12/04 05:23:16;;;;;;;21.38;14.70;;;2.60;1.00;;;;;;5061908;28;20180;-57
2020/12/04 05:25:47;;;;;;;22.13;14.75;;;2.50;1.00;;;;;;5054954;28;20212;-54
2020/12/04 05:28:15;;;;;;;23.70;15.60;;;2.60;1.00;;;;;;5063768;28;20207;-52
2020/12/04 05:30:43;;;;;;;25.13;14.38;;;2.60;1.00;;;;;;5053230;28;20186;-55
2020/12/04 05:33:09;;;;;;;21.80;15.00;;;2.60;1.00;;;;;;5058371;28;20570;-55
2020/12/04 05:35:36;;;;;;;21.87;15.37;;;2.60;1.00;;;;;;5060958;28;20179;-56
2020/12/04 05:38:16;;;;;;;22.67;14.48;;;2.60;1.00;;;;;;5053450;28;20442;-52
2020/12/04 05:40:45;;;;;;;20.90;13.68;;;2.60;1.00;;;;;;5048125;28;20266;-55
2020/12/04 05:43:11;;;;;;;22.25;14.93;;;2.50;1.00;;;;;;5063968;28;20188;-56
2020/12/04 05:45:37;;;;;;;22.77;14.40;;;2.50;1.00;;;;;;5066654;28;20233;-55
2020/12/04 05:48:12;;;;;;;19.13;14.75;;;2.50;1.00;;;;;;5064420;28;20191;-57
2020/12/04 05:50:39;;;;;;;22.60;15.18;;;2.50;1.00;;;;;;5068063;28;20198;-56
2020/12/04 05:53:07;;;;;;;23.17;15.13;;;2.40;1.70;;;;;;5065244;28;20209;-51
2020/12/04 05:55:34;;;;;;;23.65;17.23;;;2.40;4.70;;;;;;5068743;28;20163;-54
2020/12/04 05:58:01;;;;;;;23.23;15.60;;;2.40;7.30;;;;;;5067048;28;20212;-56
2020/12/04 06:00:27;;;;;;;18.10;13.88;;;2.40;9.00;;;;;;5054294;28;20186;-56
2020/12/04 06:03:04;;;;;;;21.77;14.50;;;2.30;9.80;;;;;;5052837;28;20234;-55
2020/12/04 06:05:31;;;;;;;19.08;12.95;;;2.30;10.40;;;;;;5048777;28;20547;-53
2020/12/04 06:08:06;;;;;;;22.50;13.25;;;2.30;10.70;;;;;;5067427;28;20191;-55
2020/12/04 06:10:34;;;;;;;23.30;15.15;;;2.30;9.30;;;;;;5065414;28;20900;-53
2020/12/04 06:13:01;;;;;;;24.20;15.55;;;2.40;8.10;;;;;;5066736;28;20187;-56
2020/12/04 06:15:29;;;;;;;23.08;14.73;;;2.40;7.00;;;;;;5088726;28;20254;-52
2020/12/04 06:18:08;;;;;;;19.92;14.13;;;2.40;4.60;;;;;;5071905;28;20588;-52
2020/12/04 06:20:49;;;;;;;19.98;14.48;;;2.50;2.50;;;;;;5068433;28;20182;-55
2020/12/04 06:23:19;;;;;;;22.27;14.80;;;2.40;3.00;;;;;;5057991;28;20264;-52
2020/12/04 06:25:58;;;;;;;22.38;14.60;;;2.40;5.00;;;;;;5072107;28;20225;-55
2020/12/04 06:28:30;;;;;;;19.08;13.93;;;2.40;5.70;;;;;;5069201;28;20182;-54
2020/12/04 06:31:09;;;;;;;22.02;15.52;;;2.40;4.40;;;;;;5057416;28;20217;-57
2020/12/04 06:33:42;;;;;;;22.42;13.35;;;2.40;4.40;;;;;;5067165;28;20633;-57
2020/12/04 06:36:10;;;;;;;22.05;14.75;;;2.40;5.10;;;;;;5071817;28;20254;-58
2020/12/04 06:38:40;;;;;;;23.00;14.95;;;2.40;6.90;;;;;;5061117;28;20176;-55
2020/12/04 06:41:23;;;;;;;23.73;14.40;;;2.40;7.40;;;;;;5071710;28;20224;-59
2020/12/04 06:43:55;;;;;;;21.70;14.05;;;2.40;8.30;;;;;;5061907;28;20252;-59
2020/12/04 06:46:31;;;;;;;21.10;15.30;;;2.40;6.30;;;;;;5070994;28;20181;-59
2020/12/04 06:52:09;;;;;;;19.90;14.27;;;2.50;4.20;;;;;;5060010;28;20193;-61
2020/12/04 06:54:40;;;;;;;18.63;14.30;;;2.50;1.00;;;;;;5064392;28;20563;-56
2020/12/04 06:57:09;;;;;;;19.08;13.77;;;2.50;1.00;;;;;;5066269;28;20320;-59
2020/12/04 06:59:37;;;;;;;20.83;14.30;;;2.60;1.00;;;;;;5070019;28;20322;-58
2020/12/04 07:02:16;;;;;;;20.92;15.05;;;2.50;1.00;;;;;;5068606;28;20548;-60
2020/12/04 07:04:49;;;;;;;21.17;13.32;;;2.60;1.00;;;;;;5048340;28;20258;-59
2020/12/04 07:07:17;;;;;;;21.55;15.05;;;2.60;1.00;;;;;;5044975;28;20180;-59
2020/12/04 07:09:52;;;;;;;19.58;13.57;;;2.60;1.00;;;;;;5047111;28;20206;-60
2020/12/04 07:12:20;;;;;;;19.83;13.60;;;2.60;1.00;;;;;;5045697;28;20630;-60
2020/12/04 07:14:49;;;;;;;20.33;14.05;;;2.60;1.00;;;;;;5044997;28;20537;-59
2020/12/04 07:17:20;;;;;;;20.20;13.20;;;2.70;1.00;;;;;;5046229;28;20789;-58
2020/12/04 07:19:47;;;;;;;18.55;12.75;;;2.70;1.00;;;;;;5053812;28;20171;-59
2020/12/04 07:22:17;;;;;;;18.15;13.02;;;2.80;1.00;;;;;;5051777;28;20191;-60
2020/12/04 07:24:44;;;;;;;16.17;12.52;;;2.90;1.00;;;;;;5048729;28;20302;-58
2020/12/04 07:27:13;;;;;;;22.45;13.68;;;2.90;1.00;;;;;;5053135;28;20202;-57
2020/12/04 07:29:39;;;;;;;19.30;13.60;;;2.90;1.00;;;;;;5046949;28;20194;-58
2020/12/04 07:32:05;;;;;;;19.35;13.25;;;2.90;1.00;;;;;;5044243;28;20277;-58
2020/12/04 07:34:36;;;;;;;30.67;20.02;;;3.00;1.00;;;;;;5041977;28;20539;-55
2020/12/04 07:37:02;;;;;;;20.63;14.55;;;3.00;1.00;;;;;;5051084;28;20181;-59
2020/12/04 07:39:37;;;;;;;18.80;13.85;;;3.10;1.00;;;;;;5051466;28;20787;-58
2020/12/04 07:42:05;;;;;;;18.88;13.35;;;3.20;1.00;;;;;;5046008;28;20288;-58
2020/12/04 07:44:53;;;;;;;17.48;13.77;;;3.20;1.00;;;;;;5049344;28;20246;-57
2020/12/04 07:47:19;;;;;;;18.52;13.55;;;3.20;1.00;;;;;;5052012;28;20185;-58
2020/12/04 07:49:48;;;;;;;19.10;13.70;;;3.20;1.00;;;;;;5048557;28;20216;-58
2020/12/04 07:52:22;;;;;;;17.52;12.25;;;3.30;1.00;;;;;;5043928;28;20434;-57
2020/12/04 07:55:02;;;;;;;21.25;14.60;;;3.30;1.00;;;;;;5052655;28;20177;-61
2020/12/04 07:58:00;;;;;;;17.73;12.75;;;3.40;1.00;;;;;;5049380;28;21236;-59
2020/12/04 08:00:36;;;;;;;18.80;12.98;;;3.50;1.00;;;;;;5047463;28;20260;-59
2020/12/04 08:03:13;;;;;;;18.15;12.85;;;3.60;1.00;;;;;;5066228;28;20206;-60
2020/12/04 08:05:39;;;;;;;17.77;13.15;;;3.80;1.00;;;;;;5064776;28;20198;-60
2020/12/04 08:08:06;;;;;;;16.20;11.35;;;4.00;1.00;;;;;;5059805;28;20180;-60
2020/12/04 08:10:31;;;;;;;14.18;11.45;;;4.10;1.00;;;;;;5069374;28;20667;-61
2020/12/04 08:12:58;;;;;;;15.33;10.90;;;4.40;1.00;;;;;;5067344;28;20288;-61
2020/12/04 08:15:24;;;;;;;16.85;13.02;;;4.60;1.00;;;;;;5068113;28;20192;-60
2020/12/04 08:18:03;;;;;;;14.80;11.95;;;5.00;99.90;;;;;;5069629;28;20179;-60
2020/12/04 08:20:29;;;;;;;15.50;12.05;;;5.30;99.90;;;;;;5066338;28;20184;-61
2020/12/04 08:22:55;;;;;;;17.77;12.53;;;5.60;1.00;;;;;;5067978;28;20223;-61
2020/12/04 08:25:27;;;;;;;16.70;11.93;;;5.80;99.90;;;;;;5063251;28;20785;-61
2020/12/04 08:27:53;;;;;;;14.50;12.32;;;5.90;1.00;;;;;;5049174;28;20506;-62
2020/12/04 08:30:21;;;;;;;13.18;11.00;;;6.10;1.00;;;;;;5053348;28;20350;-61
2020/12/04 08:32:53;;;;;;;14.90;11.93;;;6.30;99.90;;;;;;5068808;28;20177;-61
2020/12/04 08:35:22;;;;;;;16.83;11.77;;;6.60;1.00;;;;;;5066668;28;20170;-60
2020/12/04 08:37:49;;;;;;;13.85;11.18;;;6.80;99.90;;;;;;5059956;28;20965;-61
2020/12/04 08:40:33;;;;;;;14.50;11.75;;;6.90;1.00;;;;;;5061195;28;20231;-61
2020/12/04 08:43:17;;;;;;;15.40;11.98;;;6.70;1.00;;;;;;5068460;28;20185;-60
2020/12/04 08:45:44;;;;;;;14.60;12.10;;;6.60;99.90;;;;;;5066433;28;20742;-60
2020/12/04 08:48:15;;;;;;;15.55;12.25;;;6.60;99.90;;;;;;5068947;28;20177;-61
2020/12/04 08:50:43;;;;;;;13.13;11.45;;;6.60;99.90;;;;;;5055716;28;20174;-61
2020/12/04 08:53:10;;;;;;;15.52;12.40;;;6.40;99.90;;;;;;5067718;28;20178;-60
2020/12/04 08:55:36;;;;;;;13.23;11.65;;;6.20;1.00;;;;;;5052597;28;20205;-61
2020/12/04 08:58:02;;;;;;;15.03;12.70;;;5.80;1.00;;;;;;5068501;28;20227;-60
2020/12/04 09:00:30;;;;;;;14.30;12.30;;;5.50;96.90;;;;;;5066956;28;20573;-59
2020/12/04 09:02:56;;;;;;;15.70;12.30;;;5.30;1.00;;;;;;5066958;28;20185;-60
2020/12/04 09:05:22;;;;;;;14.77;11.73;;;5.20;1.00;;;;;;5065858;28;20287;-60
2020/12/04 09:07:48;;;;;;;16.55;12.60;;;4.90;14.10;;;;;;5055678;28;20994;-60
2020/12/04 09:10:16;;;;;;;15.63;12.57;;;4.80;99.90;;;;;;5055078;28;20256;-59
2020/12/04 09:12:44;;;;;;;15.20;11.25;;;4.70;99.90;;;;;;5066091;28;20173;-59
2020/12/04 09:15:15;;;;;;;16.65;13.30;;;4.60;1.00;;;;;;5063468;28;20186;-59
2020/12/04 09:17:40;;;;;;;17.08;12.60;;;4.60;1.00;;;;;;5066896;28;20173;-59
2020/12/04 09:20:08;;;;;;;14.43;12.23;;;4.60;1.00;;;;;;5068523;28;20562;-60
2020/12/04 09:22:35;;;;;;;16.38;12.95;;;4.60;1.00;;;;;;5068452;28;20877;-59
2020/12/04 09:25:02;;;;;;;17.25;13.20;;;4.60;1.00;;;;;;5066275;28;20291;-59
2020/12/04 09:27:28;;;;;;;17.33;13.82;;;4.50;1.00;;;;;;5067275;28;20197;-58
2020/12/04 09:29:54;;;;;;;18.10;13.70;;;4.40;1.00;;;;;;5059979;28;20180;-60
2020/12/04 09:32:20;;;;;;;19.48;12.95;;;4.50;1.00;;;;;;5067769;28;20548;-59
2020/12/04 09:34:48;;;;;;;17.25;13.55;;;4.40;1.00;;;;;;5052197;28;20186;-58
2020/12/04 09:37:20;;;;;;;16.38;13.57;;;4.40;1.00;;;;;;5056037;28;20174;-58
2020/12/04 09:39:48;;;;;;;17.27;13.57;;;4.50;1.00;;;;;;5067023;28;20219;-57
2020/12/04 09:42:15;;;;;;;19.63;13.95;;;4.50;1.00;;;;;;5048484;28;20228;-58
2020/12/04 09:44:42;;;;;;;18.80;12.98;;;4.50;1.00;;;;;;5063525;28;20320;-58
2020/12/04 09:47:07;;;;;;;16.85;13.60;;;4.50;1.00;;;;;;5052492;28;20173;-53
2020/12/04 09:49:34;;;;;;;16.93;12.47;;;4.50;1.00;;;;;;5053587;28;21033;-53
2020/12/04 09:51:59;;;;;;;16.90;13.13;;;4.50;1.00;;;;;;5072145;28;20182;-53
2020/12/04 09:54:30;;;;;;;17.10;13.40;;;4.50;1.00;;;;;;5070921;28;20262;-54
2020/12/04 09:56:57;;;;;;;14.52;12.00;;;4.50;1.00;;;;;;5070892;28;20427;-53
2020/12/04 09:59:23;;;;;;;20.02;13.23;;;4.50;1.00;;;;;;5067707;28;20213;-56
2020/12/04 10:01:50;;;;;;;17.63;12.40;;;4.50;1.00;;;;;;5071213;28;20200;-54
2020/12/04 10:04:17;;;;;;;17.20;12.98;;;4.60;1.00;;;;;;5065679;28;20324;-54
2020/12/04 10:06:42;;;;;;;18.40;12.85;;;4.60;1.00;;;;;;5070537;28;20181;-57
2020/12/04 10:09:08;;;;;;;18.00;12.50;;;4.60;1.00;;;;;;5071819;28;20289;-54
2020/12/04 10:11:34;;;;;;;15.90;12.90;;;4.70;1.00;;;;;;5070261;28;20215;-55
2020/12/04 10:13:59;;;;;;;16.50;12.67;;;4.70;1.00;;;;;;5070514;28;20219;-55
2020/12/04 10:16:25;;;;;;;23.83;13.67;;;4.70;1.00;;;;;;5060843;28;20535;-53
2020/12/04 10:18:51;;;;;;;20.37;14.17;;;4.80;1.00;;;;;;5052383;28;20216;-53
2020/12/04 10:21:18;;;;;;;14.60;12.17;;;4.80;1.00;;;;;;5066936;28;20224;-58
2020/12/04 10:23:44;;;;;;;16.85;12.98;;;4.90;1.00;;;;;;5070701;28;20185;-56
2020/12/04 10:26:10;;;;;;;17.67;13.33;;;5.00;1.00;;;;;;5071212;28;20187;-57
2020/12/04 10:28:35;;;;;;;16.70;13.20;;;5.10;1.00;;;;;;5055737;28;20341;-53
2020/12/04 10:31:01;;;;;;;17.10;12.83;;;5.30;1.00;;;;;;5064827;28;20182;-55
2020/12/04 10:33:26;;;;;;;14.73;12.33;;;5.40;99.90;;;;;;5068834;28;20177;-56
2020/12/04 10:35:52;;;;;;;18.17;13.10;;;5.40;99.90;;;;;;5071188;28;20180;-55
2020/12/04 10:38:18;;;;;;;17.27;12.43;;;5.50;55.70;;;;;;5069745;28;20209;-56
2020/12/04 10:40:43;;;;;;;14.67;11.30;;;5.60;35.90;;;;;;5054825;28;20221;-56
2020/12/04 10:43:09;;;;;;;15.83;12.10;;;6.00;1.00;;;;;;5056146;28;20247;-54
2020/12/04 10:45:34;;;;;;;14.13;11.53;;;6.60;1.00;;;;;;5070941;28;20208;-58
2020/12/04 10:48:00;;;;;;;13.70;12.20;;;7.20;1.00;;;;;;5065967;28;20170;-58
2020/12/04 10:50:26;;;;;;;15.30;13.00;;;7.80;1.00;;;;;;5070901;28;20183;-57
2020/12/04 10:52:52;;;;;;;15.40;12.27;;;8.40;1.00;;;;;;5070116;28;20248;-57
2020/12/04 10:55:17;;;;;;;14.73;13.13;;;8.70;99.90;;;;;;5067330;28;20191;-56
2020/12/04 10:57:43;;;;;;;16.53;13.30;;;8.80;8.40;;;;;;5070722;28;20275;-56
2020/12/04 11:00:08;;;;;;;13.97;12.47;;;8.70;1.00;;;;;;5066089;28;20276;-57
2020/12/04 11:02:37;;;;;;;15.93;12.50;;;9.10;1.00;;;;;;5049147;28;20591;-59
2020/12/04 11:07:47;;;;;;;16.47;13.67;;;8.80;1.00;;;;;;5055681;28;20838;-57
2020/12/04 11:10:12;;;;;;;15.50;13.27;;;8.50;1.00;;;;;;5043579;28;20482;-58
2020/12/04 11:12:38;;;;;;;15.90;12.83;;;8.30;1.00;;;;;;5052455;28;20254;-58
2020/12/04 11:15:04;;;;;;;16.17;12.63;;;8.20;63.70;;;;;;5046474;28;20267;-58
2020/12/04 11:17:30;;;;;;;15.93;13.53;;;8.30;99.90;;;;;;5055418;28;20300;-57
2020/12/04 11:19:55;;;;;;;16.23;13.40;;;8.50;32.40;;;;;;5059585;28;20419;-59
2020/12/04 11:22:21;;;;;;;17.20;13.67;;;8.70;1.00;;;;;;5041684;28;20178;-57
2020/12/04 11:24:47;;;;;;;13.83;12.23;;;8.80;1.00;;;;;;5047898;28;20215;-58
2020/12/04 11:27:13;;;;;;;15.70;13.40;;;8.20;1.00;;;;;;5052030;28;20188;-58
2020/12/04 11:29:39;;;;;;;14.97;13.37;;;8.20;1.00;;;;;;5041153;28;20536;-58
2020/12/04 11:32:05;;;;;;;16.17;12.20;;;8.30;1.00;;;;;;5044420;28;20510;-49
2020/12/04 11:34:30;;;;;;;15.40;13.00;;;8.30;41.50;;;;;;5046825;28;20446;-53
2020/12/04 11:36:56;;;;;;;16.37;13.23;;;8.50;1.00;;;;;;5055924;28;20469;-52
2020/12/04 11:39:22;;;;;;;14.90;12.30;;;8.30;1.00;;;;;;5044613;28;20805;-50
2020/12/04 11:41:49;;;;;;;16.53;13.53;;;7.80;1.00;;;;;;5050732;28;20226;-51
2020/12/04 11:44:15;;;;;;;14.40;12.57;;;7.30;99.90;;;;;;5045839;28;20279;-52
2020/12/04 11:46:40;;;;;;;17.57;13.73;;;6.70;1.00;;;;;;5049655;28;20187;-50
2020/12/04 11:49:06;;;;;;;19.03;12.93;;;6.60;99.90;;;;;;5051488;28;20185;-49
2020/12/04 11:51:31;;;;;;;16.23;13.60;;;6.40;1.00;;;;;;5044353;28;20226;-49
2020/12/04 11:53:57;;;;;;;14.60;12.17;;;6.00;7.60;;;;;;5045258;28;20660;-50
2020/12/04 11:56:23;;;;;;;15.00;13.03;;;5.80;99.90;;;;;;5048353;28;20190;-51
2020/12/04 11:58:48;;;;;;;17.33;12.27;;;5.80;99.90;;;;;;5047760;28;20188;-51
2020/12/04 12:01:14;;;;;;;16.43;12.60;;;5.70;99.90;;;;;;5046235;28;20185;-49
2020/12/04 12:03:40;;;;;;;19.00;13.93;;;5.60;99.90;;;;;;5051440;28;20243;-49
2020/12/04 12:06:05;;;;;;;16.53;12.47;;;5.70;34.80;;;;;;5041406;28;20185;-49
2020/12/04 12:08:31;;;;;;;17.73;13.20;;;5.90;99.90;;;;;;5064646;28;20264;-50
2020/12/04 12:10:57;;;;;;;14.83;13.20;;;6.30;1.00;;;;;;5061298;28;20182;-53
2020/12/04 12:13:23;;;;;;;15.40;11.90;;;6.70;1.00;;;;;;5061416;28;20644;-49
2020/12/04 12:15:48;;;;;;;14.70;12.63;;;7.10;1.00;;;;;;5066058;28;20195;-52
2020/12/04 12:18:14;;;;;;;16.83;12.70;;;7.60;99.90;;;;;;5067583;28;20182;-51
2020/12/04 12:20:40;;;;;;;16.07;13.50;;;7.70;1.00;;;;;;5055451;28;20191;-49
2020/12/04 12:23:05;;;;;;;14.90;12.57;;;7.90;1.00;;;;;;5060794;28;20187;-48
2020/12/04 12:25:31;;;;;;;15.07;12.67;;;8.30;99.90;;;;;;5061777;28;20721;-52
2020/12/04 12:27:57;;;;;;;14.30;12.50;;;8.50;99.90;;;;;;5058554;28;20688;-50
2020/12/04 12:30:23;;;;;;;17.27;12.00;;;8.80;51.70;;;;;;5062282;28;20942;-49
2020/12/04 12:32:48;;;;;;;16.17;12.87;;;8.60;1.00;;;;;;5063493;28;20650;-52
2020/12/04 12:35:14;;;;;;;14.30;12.43;;;8.60;1.00;;;;;;5054135;28;20195;-47
2020/12/04 12:37:44;;;;;;;13.57;12.17;;;8.70;1.00;;;;;;5066598;28;20637;-49
2020/12/04 12:40:12;;;;;;;13.80;11.47;;;8.80;1.00;;;;;;5064033;28;20200;-51
2020/12/04 12:42:39;;;;;;;15.17;13.47;;;8.90;1.00;;;;;;5053413;28;20443;-51
2020/12/04 12:45:06;;;;;;;14.80;13.10;;;8.80;1.00;;;;;;5058850;28;20515;-48
2020/12/04 12:47:31;;;;;;;16.50;13.47;;;9.20;1.00;;;;;;5063555;28;20469;-50
2020/12/04 12:49:57;;;;;;;16.17;14.47;;;9.50;1.00;;;;;;5067911;28;20525;-49
2020/12/04 12:52:23;;;;;;;15.60;12.80;;;9.30;1.00;;;;;;5064977;28;20192;-50
2020/12/04 12:54:49;;;;;;;15.77;12.50;;;9.40;1.00;;;;;;5066336;28;20200;-49